sensor_id;sensor_type;location;lat;lon;timestamp;pressure;altitude;pressure_sealevel;temperature;humidity
8543;BME280;4309;42.658;23.380;2023-03-04T00:00:19;94768.19;;;6.46;92.36
8543;BME280;4309;42.658;23.380;2023-03-04T00:00:50;94763.00;;;6.46;92.65
8543;BME280;4309;42.658;23.380;2023-03-04T00:01:22;94764.94;;;6.37;92.64
8543;BME280;4309;42.658;23.380;2023-03-04T00:01:52;94769.81;;;6.19;92.58
8543;BME280;4309;42.658;23.380;2023-03-04T00:02:23;94770.53;;;6.06;93.92
8543;BME280;4309;42.658;23.380;2023-03-04T00:02:55;94765.66;;;5.97;93.47
8543;BME280;4309;42.658;23.380;2023-03-04T00:03:26;94764.69;;;5.98;94.23
8543;BME280;4309;42.658;23.380;2023-03-04T00:03:56;94761.47;;;5.96;95.22
8543;BME280;4309;42.658;23.380;2023-03-04T00:04:28;94766.88;;;5.94;94.95
8543;BME280;4309;42.658;23.380;2023-03-04T00:05:00;94770.41;;;5.87;95.82
8543;BME280;4309;42.658;23.380;2023-03-04T00:05:32;94769.59;;;5.86;95.92
8543;BME280;4309;42.658;23.380;2023-03-04T00:06:05;94762.53;;;6.01;95.94
8543;BME280;4309;42.658;23.380;2023-03-04T00:06:36;94763.59;;;6.13;95.57
8543;BME280;4309;42.658;23.380;2023-03-04T00:07:07;94758.84;;;6.17;96.09
8543;BME280;4309;42.658;23.380;2023-03-04T00:07:38;94768.25;;;6.24;95.22
8543;BME280;4309;42.658;23.380;2023-03-04T00:09:36;94761.72;;;6.35;94.38
8543;BME280;4309;42.658;23.380;2023-03-04T00:10:09;94762.88;;;6.26;94.11
8543;BME280;4309;42.658;23.380;2023-03-04T00:10:40;94765.31;;;6.34;94.79
8543;BME280;4309;42.658;23.380;2023-03-04T00:11:10;94765.16;;;6.42;94.70
8543;BME280;4309;42.658;23.380;2023-03-04T00:11:42;94760.75;;;6.43;94.28
8543;BME280;4309;42.658;23.380;2023-03-04T00:12:13;94757.78;;;6.46;94.57
8543;BME280;4309;42.658;23.380;2023-03-04T00:12:43;94756.41;;;6.50;94.24
8543;BME280;4309;42.658;23.380;2023-03-04T00:13:14;94761.00;;;6.54;93.93
8543;BME280;4309;42.658;23.380;2023-03-04T00:13:46;94752.84;;;6.57;93.87
8543;BME280;4309;42.658;23.380;2023-03-04T00:14:17;94752.81;;;6.51;93.07
8543;BME280;4309;42.658;23.380;2023-03-04T00:14:47;94750.41;;;6.49;93.71
8543;BME280;4309;42.658;23.380;2023-03-04T00:15:19;94749.63;;;6.55;93.18
8543;BME280;4309;42.658;23.380;2023-03-04T00:15:50;94749.63;;;6.55;93.20
8543;BME280;4309;42.658;23.380;2023-03-04T00:16:21;94748.84;;;6.55;93.47
8543;BME280;4309;42.658;23.380;2023-03-04T00:17:36;94753.09;;;6.69;93.93
8543;BME280;4309;42.658;23.380;2023-03-04T00:18:07;94750.50;;;6.69;93.18
8543;BME280;4309;42.658;23.380;2023-03-04T00:18:38;94753.50;;;6.72;92.96
8543;BME280;4309;42.658;23.380;2023-03-04T00:19:09;94750.09;;;6.72;91.96
8543;BME280;4309;42.658;23.380;2023-03-04T00:19:40;94754.50;;;6.71;92.14
8543;BME280;4309;42.658;23.380;2023-03-04T00:20:12;94743.69;;;6.68;92.83
8543;BME280;4309;42.658;23.380;2023-03-04T00:20:43;94747.28;;;6.67;92.30
8543;BME280;4309;42.658;23.380;2023-03-04T00:21:13;94746.84;;;6.63;92.33
8543;BME280;4309;42.658;23.380;2023-03-04T00:21:45;94752.44;;;6.60;91.50
8543;BME280;4309;42.658;23.380;2023-03-04T00:22:16;94751.84;;;6.65;92.15
8543;BME280;4309;42.658;23.380;2023-03-04T00:22:46;94751.06;;;6.64;91.96
8543;BME280;4309;42.658;23.380;2023-03-04T00:23:18;94756.66;;;6.68;91.46
8543;BME280;4309;42.658;23.380;2023-03-04T00:23:49;94749.25;;;6.58;92.20
8543;BME280;4309;42.658;23.380;2023-03-04T00:24:20;94742.66;;;6.62;92.33
8543;BME280;4309;42.658;23.380;2023-03-04T00:24:50;94739.84;;;6.57;91.86
8543;BME280;4309;42.658;23.380;2023-03-04T00:25:22;94749.63;;;6.55;91.36
8543;BME280;4309;42.658;23.380;2023-03-04T00:25:53;94738.44;;;6.55;91.44
8543;BME280;4309;42.658;23.380;2023-03-04T00:26:23;94747.41;;;6.52;92.07
8543;BME280;4309;42.658;23.380;2023-03-04T00:26:55;94744.22;;;6.50;91.38
8543;BME280;4309;42.658;23.380;2023-03-04T00:27:26;94748.38;;;6.45;92.44
8543;BME280;4309;42.658;23.380;2023-03-04T00:27:56;94751.19;;;6.43;91.58
8543;BME280;4309;42.658;23.380;2023-03-04T00:28:28;94746.63;;;6.52;92.50
8543;BME280;4309;42.658;23.380;2023-03-04T00:28:59;94748.25;;;6.59;91.76
8543;BME280;4309;42.658;23.380;2023-03-04T00:29:29;94751.00;;;6.51;91.85
8543;BME280;4309;42.658;23.380;2023-03-04T00:30:01;94749.97;;;6.39;91.43
8543;BME280;4309;42.658;23.380;2023-03-04T00:30:32;94748.56;;;6.43;91.92
8543;BME280;4309;42.658;23.380;2023-03-04T00:31:03;94736.38;;;6.37;92.21
8543;BME280;4309;42.658;23.380;2023-03-04T00:31:34;94743.38;;;6.43;93.18
8543;BME280;4309;42.658;23.380;2023-03-04T00:32:06;94746.75;;;6.37;92.34
8543;BME280;4309;42.658;23.380;2023-03-04T00:32:38;94751.75;;;6.39;92.97
8543;BME280;4309;42.658;23.380;2023-03-04T00:33:09;94750.56;;;6.35;92.63
8543;BME280;4309;42.658;23.380;2023-03-04T00:33:39;94747.97;;;6.41;92.89
8543;BME280;4309;42.658;23.380;2023-03-04T00:34:12;94747.41;;;6.46;93.29
8543;BME280;4309;42.658;23.380;2023-03-04T00:34:43;94745.38;;;6.41;93.02
8543;BME280;4309;42.658;23.380;2023-03-04T00:35:14;94730.38;;;6.37;93.05
8543;BME280;4309;42.658;23.380;2023-03-04T00:35:46;94746.78;;;6.44;93.31
8543;BME280;4309;42.658;23.380;2023-03-04T00:36:16;94742.75;;;6.41;93.24
8543;BME280;4309;42.658;23.380;2023-03-04T00:36:47;94749.78;;;6.41;93.78
8543;BME280;4309;42.658;23.380;2023-03-04T00:37:19;94740.97;;;6.42;93.27
8543;BME280;4309;42.658;23.380;2023-03-04T00:37:49;94750.44;;;6.56;93.33
8543;BME280;4309;42.658;23.380;2023-03-04T00:38:20;94740.47;;;6.59;93.07
8543;BME280;4309;42.658;23.380;2023-03-04T00:38:52;94739.22;;;6.55;92.58
8543;BME280;4309;42.658;23.380;2023-03-04T00:39:22;94737.88;;;6.59;92.15
8543;BME280;4309;42.658;23.380;2023-03-04T00:39:53;94739.03;;;6.57;91.93
8543;BME280;4309;42.658;23.380;2023-03-04T00:40:24;94737.63;;;6.54;92.40
8543;BME280;4309;42.658;23.380;2023-03-04T00:40:55;94739.66;;;6.59;92.06
8543;BME280;4309;42.658;23.380;2023-03-04T00:41:26;94739.22;;;6.55;92.23
8543;BME280;4309;42.658;23.380;2023-03-04T00:41:57;94742.44;;;6.57;91.87
8543;BME280;4309;42.658;23.380;2023-03-04T00:42:28;94737.09;;;6.65;91.67
8543;BME280;4309;42.658;23.380;2023-03-04T00:42:59;94746.28;;;6.61;91.25
8543;BME280;4309;42.658;23.380;2023-03-04T00:43:30;94740.47;;;6.59;91.68
8543;BME280;4309;42.658;23.380;2023-03-04T00:44:01;94738.69;;;6.60;92.26
8543;BME280;4309;42.658;23.380;2023-03-04T00:44:33;94737.63;;;6.54;91.57
8543;BME280;4309;42.658;23.380;2023-03-04T00:45:04;94742.03;;;6.54;91.82
8543;BME280;4309;42.658;23.380;2023-03-04T00:45:35;94741.06;;;6.61;91.31
8543;BME280;4309;42.658;23.380;2023-03-04T00:46:07;94739.44;;;6.54;91.53
8543;BME280;4309;42.658;23.380;2023-03-04T00:46:38;94747.41;;;6.52;92.20
8543;BME280;4309;42.658;23.380;2023-03-04T00:47:08;94747.41;;;6.46;91.65
8543;BME280;4309;42.658;23.380;2023-03-04T00:47:40;94739.22;;;6.49;92.02
8543;BME280;4309;42.658;23.380;2023-03-04T00:48:12;94746.41;;;6.47;92.60
8543;BME280;4309;42.658;23.380;2023-03-04T00:48:43;94744.00;;;6.45;92.60
8543;BME280;4309;42.658;23.380;2023-03-04T00:49:14;94741.63;;;6.50;92.34
8543;BME280;4309;42.658;23.380;2023-03-04T00:49:46;94744.00;;;6.45;92.54
8543;BME280;4309;42.658;23.380;2023-03-04T00:50:16;94750.34;;;6.43;92.04
8543;BME280;4309;42.658;23.380;2023-03-04T00:50:47;94750.41;;;6.49;91.85
8543;BME280;4309;42.658;23.380;2023-03-04T00:51:57;94743.81;;;6.47;92.45
8543;BME280;4309;42.658;23.380;2023-03-04T00:52:29;94738.41;;;6.48;93.04
8543;BME280;4309;42.658;23.380;2023-03-04T00:52:59;94737.19;;;6.44;92.25
8543;BME280;4309;42.658;23.380;2023-03-04T00:53:31;94740.38;;;6.40;92.66
8543;BME280;4309;42.658;23.380;2023-03-04T00:54:03;94734.59;;;6.38;92.66
8543;BME280;4309;42.658;23.380;2023-03-04T00:54:33;94738.34;;;6.35;92.63
8543;BME280;4309;42.658;23.380;2023-03-04T00:55:06;94742.38;;;6.44;91.94
8543;BME280;4309;42.658;23.380;2023-03-04T00:55:38;94748.25;;;6.59;92.87
8543;BME280;4309;42.658;23.380;2023-03-04T00:56:08;94741.47;;;6.65;91.26
8543;BME280;4309;42.658;23.380;2023-03-04T00:56:39;94732.69;;;6.66;91.48
8543;BME280;4309;42.658;23.380;2023-03-04T00:57:11;94735.53;;;6.71;90.30
8543;BME280;4309;42.658;23.380;2023-03-04T00:57:41;94735.91;;;6.74;91.23
8543;BME280;4309;42.658;23.380;2023-03-04T00:58:12;94731.50;;;6.68;90.81
8543;BME280;4309;42.658;23.380;2023-03-04T00:58:43;94734.38;;;6.39;90.86
8543;BME280;4309;42.658;23.380;2023-03-04T00:59:14;94735.88;;;6.20;91.85
8543;BME280;4309;42.658;23.380;2023-03-04T00:59:45;94736.63;;;6.14;92.41
8543;BME280;4309;42.658;23.380;2023-03-04T01:00:16;94735.53;;;5.96;93.96
8543;BME280;4309;42.658;23.380;2023-03-04T01:00:48;94737.69;;;5.92;94.54
8543;BME280;4309;42.658;23.380;2023-03-04T01:01:19;94733.94;;;5.95;95.02
8543;BME280;4309;42.658;23.380;2023-03-04T01:01:49;94732.16;;;6.02;94.59
8543;BME280;4309;42.658;23.380;2023-03-04T01:02:21;94730.00;;;6.05;94.08
8543;BME280;4309;42.658;23.380;2023-03-04T01:02:52;94735.63;;;6.09;94.83
8543;BME280;4309;42.658;23.380;2023-03-04T01:03:22;94734.22;;;6.13;94.19
8543;BME280;4309;42.658;23.380;2023-03-04T01:03:56;94736.03;;;6.12;94.47
8543;BME280;4309;42.658;23.380;2023-03-04T01:04:26;94733.66;;;6.17;93.94
8543;BME280;4309;42.658;23.380;2023-03-04T01:04:57;94736.88;;;6.19;94.46
8543;BME280;4309;42.658;23.380;2023-03-04T01:05:29;94736.28;;;6.24;94.45
8543;BME280;4309;42.658;23.380;2023-03-04T01:05:59;94734.13;;;6.27;94.14
8543;BME280;4309;42.658;23.380;2023-03-04T01:06:30;94736.72;;;6.27;93.80
8543;BME280;4309;42.658;23.380;2023-03-04T01:07:03;94744.50;;;6.27;93.71
8543;BME280;4309;42.658;23.380;2023-03-04T01:07:34;94741.09;;;6.27;94.03
8543;BME280;4309;42.658;23.380;2023-03-04T01:08:05;94747.69;;;6.23;94.56
8543;BME280;4309;42.658;23.380;2023-03-04T01:08:37;94743.31;;;6.23;93.93
8543;BME280;4309;42.658;23.380;2023-03-04T01:09:08;94737.34;;;6.29;94.24
8543;BME280;4309;42.658;23.380;2023-03-04T01:09:39;94744.69;;;6.26;94.25
8543;BME280;4309;42.658;23.380;2023-03-04T01:10:12;94741.44;;;6.11;93.38
8543;BME280;4309;42.658;23.380;2023-03-04T01:10:43;94741.63;;;6.16;93.13
8543;BME280;4309;42.658;23.380;2023-03-04T01:11:14;94737.59;;;6.07;94.55
8543;BME280;4309;42.658;23.380;2023-03-04T01:11:46;94734.00;;;6.01;94.40
8543;BME280;4309;42.658;23.380;2023-03-04T01:12:17;94735.38;;;6.04;94.96
8543;BME280;4309;42.658;23.380;2023-03-04T01:12:48;94732.03;;;6.10;95.09
8543;BME280;4309;42.658;23.380;2023-03-04T01:13:19;94733.44;;;6.12;94.17
8543;BME280;4309;42.658;23.380;2023-03-04T01:13:50;94730.09;;;5.91;94.55
8543;BME280;4309;42.658;23.380;2023-03-04T01:14:21;94733.31;;;5.93;95.63
8543;BME280;4309;42.658;23.380;2023-03-04T01:14:51;94731.16;;;5.96;96.03
8543;BME280;4309;42.658;23.380;2023-03-04T01:15:23;94727.19;;;6.00;94.91
8543;BME280;4309;42.658;23.380;2023-03-04T01:15:54;94732.41;;;6.07;95.15
8543;BME280;4309;42.658;23.380;2023-03-04T01:16:25;94731.00;;;6.04;95.63
8543;BME280;4309;42.658;23.380;2023-03-04T01:16:57;94729.81;;;6.07;95.27
8543;BME280;4309;42.658;23.380;2023-03-04T01:17:27;94728.66;;;6.09;95.98
8543;BME280;4309;42.658;23.380;2023-03-04T01:17:58;94734.81;;;6.08;95.61
8543;BME280;4309;42.658;23.380;2023-03-04T01:18:30;94730.88;;;6.19;95.39
8543;BME280;4309;42.658;23.380;2023-03-04T01:19:00;94731.09;;;6.24;94.76
8543;BME280;4309;42.658;23.380;2023-03-04T01:19:31;94725.94;;;6.30;93.75
8543;BME280;4309;42.658;23.380;2023-03-04T01:20:03;94730.38;;;6.37;94.31
8543;BME280;4309;42.658;23.380;2023-03-04T01:20:34;94730.38;;;6.37;94.42
8543;BME280;4309;42.658;23.380;2023-03-04T01:21:05;94722.53;;;6.30;93.50
8543;BME280;4309;42.658;23.380;2023-03-04T01:21:36;94734.31;;;6.26;93.23
8543;BME280;4309;42.658;23.380;2023-03-04T01:22:10;94723.72;;;6.27;93.07
8543;BME280;4309;42.658;23.380;2023-03-04T01:22:41;94730.31;;;6.30;94.45
8543;BME280;4309;42.658;23.380;2023-03-04T01:23:12;94725.94;;;6.30;94.07
8543;BME280;4309;42.658;23.380;2023-03-04T01:23:43;94724.75;;;6.33;93.80
8543;BME280;4309;42.658;23.380;2023-03-04T01:24:14;94723.38;;;6.37;94.17
8543;BME280;4309;42.658;23.380;2023-03-04T01:24:45;94719.97;;;6.37;93.13
8543;BME280;4309;42.658;23.380;2023-03-04T01:25:17;94717.56;;;6.35;94.06
8543;BME280;4309;42.658;23.380;2023-03-04T01:25:48;94724.00;;;6.39;93.21
8543;BME280;4309;42.658;23.380;2023-03-04T01:26:18;94728.78;;;6.36;93.46
8543;BME280;4309;42.658;23.380;2023-03-04T01:26:50;94723.19;;;6.39;94.29
8543;BME280;4309;42.658;23.380;2023-03-04T01:27:21;94717.59;;;6.42;93.73
8543;BME280;4309;42.658;23.380;2023-03-04T01:27:51;94721.19;;;6.34;93.17
8543;BME280;4309;42.658;23.380;2023-03-04T01:28:23;94717.56;;;6.35;93.88
8543;BME280;4309;42.658;23.380;2023-03-04T01:28:54;94721.19;;;6.34;94.10
8543;BME280;4309;42.658;23.380;2023-03-04T01:29:24;94723.16;;;6.32;94.12
8543;BME280;4309;42.658;23.380;2023-03-04T01:29:55;94717.56;;;6.35;93.27
8543;BME280;4309;42.658;23.380;2023-03-04T01:30:27;94725.38;;;6.35;93.65
8543;BME280;4309;42.658;23.380;2023-03-04T01:30:57;94715.56;;;6.30;93.81
8543;BME280;4309;42.658;23.380;2023-03-04T01:31:28;94723.34;;;6.30;93.23
8543;BME280;4309;42.658;23.380;2023-03-04T01:32:00;94713.78;;;6.31;92.66
8543;BME280;4309;42.658;23.380;2023-03-04T01:32:30;94721.34;;;6.26;93.47
8543;BME280;4309;42.658;23.380;2023-03-04T01:33:01;94710.56;;;6.29;94.24
8543;BME280;4309;42.658;23.380;2023-03-04T01:33:32;94710.78;;;6.34;92.67
8543;BME280;4309;42.658;23.380;2023-03-04T01:34:03;94713.38;;;6.34;93.18
8543;BME280;4309;42.658;23.380;2023-03-04T01:34:34;94696.19;;;6.26;93.88
8543;BME280;4309;42.658;23.380;2023-03-04T01:35:06;94717.16;;;6.31;93.11
8543;BME280;4309;42.658;23.380;2023-03-04T01:35:36;94718.53;;;6.27;93.08
8543;BME280;4309;42.658;23.380;2023-03-04T01:36:08;94720.31;;;6.27;94.03
8543;BME280;4309;42.658;23.380;2023-03-04T01:36:39;94715.56;;;6.30;93.93
8543;BME280;4309;42.658;23.380;2023-03-04T01:37:11;94717.34;;;6.30;93.51
8543;BME280;4309;42.658;23.380;2023-03-04T01:37:43;94716.34;;;6.24;94.00
8543;BME280;4309;42.658;23.380;2023-03-04T01:38:14;94713.16;;;6.29;93.42
8543;BME280;4309;42.658;23.380;2023-03-04T01:38:45;94711.59;;;6.35;93.58
8543;BME280;4309;42.658;23.380;2023-03-04T01:39:16;94712.78;;;6.32;94.07
8543;BME280;4309;42.658;23.380;2023-03-04T01:39:47;94716.78;;;6.35;94.29
8543;BME280;4309;42.658;23.380;2023-03-04T01:40:18;94711.38;;;6.29;92.89
8543;BME280;4309;42.658;23.380;2023-03-04T01:40:50;94705.78;;;6.32;93.80
8543;BME280;4309;42.658;23.380;2023-03-04T01:41:22;94711.22;;;6.38;93.88
8543;BME280;4309;42.658;23.380;2023-03-04T01:41:54;94715.25;;;6.47;93.87
8543;BME280;4309;42.658;23.380;2023-03-04T01:42:29;94708.44;;;6.52;92.41
8543;BME280;4309;42.658;23.380;2023-03-04T01:43:01;94707.50;;;6.60;92.61
8543;BME280;4309;42.658;23.380;2023-03-04T01:43:34;94705.06;;;6.52;92.46
8543;BME280;4309;42.658;23.380;2023-03-04T01:44:08;94704.03;;;6.46;91.81
8543;BME280;4309;42.658;23.380;2023-03-04T01:44:40;94701.03;;;6.43;91.36
8543;BME280;4309;42.658;23.380;2023-03-04T01:45:13;94707.81;;;6.37;91.64
8543;BME280;4309;42.658;23.380;2023-03-04T01:45:46;94705.25;;;6.44;92.73
8543;BME280;4309;42.658;23.380;2023-03-04T01:46:17;94692.09;;;6.52;92.18
8543;BME280;4309;42.658;23.380;2023-03-04T01:46:52;94707.28;;;6.55;91.97
8543;BME280;4309;42.658;23.380;2023-03-04T01:47:27;94696.88;;;6.55;92.11
8543;BME280;4309;42.658;23.380;2023-03-04T01:47:58;94697.47;;;6.57;91.50
8543;BME280;4309;42.658;23.380;2023-03-04T01:48:30;94692.13;;;6.58;91.64
8543;BME280;4309;42.658;23.380;2023-03-04T01:49:05;94692.88;;;6.52;91.99
8543;BME280;4309;42.658;23.380;2023-03-04T01:49:36;94709.84;;;6.48;91.85
8543;BME280;4309;42.658;23.380;2023-03-04T01:50:17;94699.66;;;6.47;91.81
8543;BME280;4309;42.658;23.380;2023-03-04T01:50:49;94696.03;;;6.41;91.58
8543;BME280;4309;42.658;23.380;2023-03-04T01:51:20;94707.25;;;6.48;91.79
8543;BME280;4309;42.658;23.380;2023-03-04T01:51:53;94694.66;;;6.45;92.29
8543;BME280;4309;42.658;23.380;2023-03-04T01:52:26;94705.63;;;6.41;91.25
8543;BME280;4309;42.658;23.380;2023-03-04T01:52:57;94696.03;;;6.41;92.08
8543;BME280;4309;42.658;23.380;2023-03-04T01:53:29;94705.16;;;6.30;91.29
8543;BME280;4309;42.658;23.380;2023-03-04T01:54:01;94707.56;;;6.32;92.25
8543;BME280;4309;42.658;23.380;2023-03-04T01:54:32;94704.97;;;6.32;91.99
8543;BME280;4309;42.658;23.380;2023-03-04T01:55:08;94698.00;;;6.32;92.55
8543;BME280;4309;42.658;23.380;2023-03-04T01:55:41;94704.75;;;6.27;91.47
8543;BME280;4309;42.658;23.380;2023-03-04T01:56:15;94705.44;;;6.42;92.05
8543;BME280;4309;42.658;23.380;2023-03-04T01:56:49;94700.47;;;6.47;91.88
8543;BME280;4309;42.658;23.380;2023-03-04T01:57:23;94707.63;;;6.45;90.60
8543;BME280;4309;42.658;23.380;2023-03-04T01:57:54;94700.03;;;6.44;90.96
8543;BME280;4309;42.658;23.380;2023-03-04T01:58:28;94698.63;;;6.35;91.72
8543;BME280;4309;42.658;23.380;2023-03-04T01:59:09;94692.81;;;6.32;91.53
8543;BME280;4309;42.658;23.380;2023-03-04T01:59:40;94700.69;;;6.11;92.96
8543;BME280;4309;42.658;23.380;2023-03-04T02:00:20;94697.28;;;6.04;93.45
8543;BME280;4309;42.658;23.380;2023-03-04T02:00:52;94703.47;;;6.10;93.24
8543;BME280;4309;42.658;23.380;2023-03-04T02:01:23;94695.13;;;6.21;93.52
8543;BME280;4309;42.658;23.380;2023-03-04T02:01:55;94695.38;;;6.26;92.37
8543;BME280;4309;42.658;23.380;2023-03-04T02:02:27;94691.34;;;6.17;91.86
8543;BME280;4309;42.658;23.380;2023-03-04T02:03:01;94694.97;;;6.29;92.73
8543;BME280;4309;42.658;23.380;2023-03-04T02:03:33;94693.28;;;6.08;92.51
8543;BME280;4309;42.658;23.380;2023-03-04T02:04:05;94701.72;;;6.17;92.48
8543;BME280;4309;42.658;23.380;2023-03-04T02:04:38;94690.97;;;6.20;91.86
8543;BME280;4309;42.658;23.380;2023-03-04T02:05:10;94697.53;;;6.22;92.34
8543;BME280;4309;42.658;23.380;2023-03-04T02:05:43;94694.31;;;6.14;91.25
8543;BME280;4309;42.658;23.380;2023-03-04T02:06:15;94700.09;;;6.16;92.01
8543;BME280;4309;42.658;23.380;2023-03-04T02:06:46;94692.13;;;6.17;91.82
8543;BME280;4309;42.658;23.380;2023-03-04T02:07:18;94697.06;;;6.06;92.35
8543;BME280;4309;42.658;23.380;2023-03-04T02:07:52;94693.91;;;6.10;91.89
8543;BME280;4309;42.658;23.380;2023-03-04T02:08:23;94699.34;;;6.22;91.89
8543;BME280;4309;42.658;23.380;2023-03-04T02:08:54;94697.97;;;6.26;91.47
8543;BME280;4309;42.658;23.380;2023-03-04T02:09:27;94693.59;;;6.26;91.75
8543;BME280;4309;42.658;23.380;2023-03-04T02:09:58;94690.78;;;6.28;91.18
8543;BME280;4309;42.658;23.380;2023-03-04T02:10:57;94700.72;;;6.18;92.50
8543;BME280;4309;42.658;23.380;2023-03-04T02:11:29;94702.03;;;6.01;91.78
8543;BME280;4309;42.658;23.380;2023-03-04T02:12:00;94696.16;;;5.86;92.64
8543;BME280;4309;42.658;23.380;2023-03-04T02:12:31;94696.81;;;5.73;93.42
8543;BME280;4309;42.658;23.380;2023-03-04T02:13:02;94698.59;;;5.66;94.08
8543;BME280;4309;42.658;23.380;2023-03-04T02:13:34;94694.78;;;5.90;94.88
8543;BME280;4309;42.658;23.380;2023-03-04T02:14:06;94695.44;;;5.98;93.71
8543;BME280;4309;42.658;23.380;2023-03-04T02:14:37;94693.25;;;6.02;93.60
8543;BME280;4309;42.658;23.380;2023-03-04T02:15:10;94689.88;;;6.08;92.69
8543;BME280;4309;42.658;23.380;2023-03-04T02:15:42;94691.50;;;6.09;92.21
8543;BME280;4309;42.658;23.380;2023-03-04T02:16:13;94695.25;;;6.06;92.88
8543;BME280;4309;42.658;23.380;2023-03-04T02:16:44;94689.09;;;6.07;92.83
8543;BME280;4309;42.658;23.380;2023-03-04T02:17:16;94691.69;;;6.07;92.01
8543;BME280;4309;42.658;23.380;2023-03-04T02:17:47;94697.28;;;6.04;93.42
8543;BME280;4309;42.658;23.380;2023-03-04T02:18:20;94690.25;;;6.05;92.47
8543;BME280;4309;42.658;23.380;2023-03-04T02:18:52;94697.06;;;6.06;93.52
8543;BME280;4309;42.658;23.380;2023-03-04T02:19:33;94693.72;;;6.12;91.61
8543;BME280;4309;42.658;23.380;2023-03-04T02:20:20;94687.56;;;6.19;91.78
8543;BME280;4309;42.658;23.380;2023-03-04T02:21:00;94700.72;;;6.18;91.81
8543;BME280;4309;42.658;23.380;2023-03-04T02:21:34;94700.44;;;6.06;91.36
8543;BME280;4309;42.658;23.380;2023-03-04T02:22:06;94698.84;;;6.05;90.65
8543;BME280;4309;42.658;23.380;2023-03-04T02:22:39;94695.25;;;6.06;91.06
8543;BME280;4309;42.658;23.380;2023-03-04T02:23:16;94696.06;;;6.07;91.72
8543;BME280;4309;42.658;23.380;2023-03-04T02:23:57;94698.66;;;6.07;91.38
8543;BME280;4309;42.658;23.380;2023-03-04T02:24:35;94691.69;;;6.07;90.95
8543;BME280;4309;42.658;23.380;2023-03-04T02:25:10;94695.06;;;6.08;91.85
8543;BME280;4309;42.658;23.380;2023-03-04T02:25:49;94700.44;;;6.06;92.10
8543;BME280;4309;42.658;23.380;2023-03-04T02:26:24;94695.25;;;6.06;91.60
8543;BME280;4309;42.658;23.380;2023-03-04T02:26:55;94694.25;;;6.01;90.69
8543;BME280;4309;42.658;23.380;2023-03-04T02:27:26;94685.63;;;5.94;91.57
8543;BME280;4309;42.658;23.380;2023-03-04T02:27:58;94695.97;;;5.87;91.47
8543;BME280;4309;42.658;23.380;2023-03-04T02:28:28;94694.34;;;5.86;91.78
8543;BME280;4309;42.658;23.380;2023-03-04T02:29:00;94692.97;;;5.84;91.95
8543;BME280;4309;42.658;23.380;2023-03-04T02:29:31;94690.41;;;5.97;92.44
8543;BME280;4309;42.658;23.380;2023-03-04T02:30:04;94691.56;;;5.88;92.17
8543;BME280;4309;42.658;23.380;2023-03-04T02:30:35;94693.69;;;5.78;91.94
8543;BME280;4309;42.658;23.380;2023-03-04T02:31:08;94693.16;;;5.82;92.80
8543;BME280;4309;42.658;23.380;2023-03-04T02:31:42;94689.28;;;5.78;92.55
8543;BME280;4309;42.658;23.380;2023-03-04T02:32:15;94692.34;;;5.82;93.44
8543;BME280;4309;42.658;23.380;2023-03-04T02:32:46;94692.34;;;5.82;93.39
8543;BME280;4309;42.658;23.380;2023-03-04T02:33:17;94698.44;;;5.74;93.79
8543;BME280;4309;42.658;23.380;2023-03-04T02:33:50;94690.47;;;5.76;94.20
8543;BME280;4309;42.658;23.380;2023-03-04T02:34:23;94688.25;;;5.73;93.35
8543;BME280;4309;42.658;23.380;2023-03-04T02:34:55;94692.50;;;5.80;93.92
8543;BME280;4309;42.658;23.380;2023-03-04T02:35:26;94689.34;;;5.85;94.42
8543;BME280;4309;42.658;23.380;2023-03-04T02:35:57;94692.22;;;5.96;94.58
8543;BME280;4309;42.658;23.380;2023-03-04T02:36:29;94695.00;;;5.95;93.22
8543;BME280;4309;42.658;23.380;2023-03-04T02:37:02;94685.53;;;5.81;93.62
8543;BME280;4309;42.658;23.380;2023-03-04T02:37:33;94694.47;;;5.78;93.89
8543;BME280;4309;42.658;23.380;2023-03-04T02:38:03;94690.66;;;5.74;94.23
8543;BME280;4309;42.658;23.380;2023-03-04T02:38:35;94685.81;;;5.65;93.75
8543;BME280;4309;42.658;23.380;2023-03-04T02:39:11;94694.03;;;5.68;93.89
8543;BME280;4309;42.658;23.380;2023-03-04T02:39:44;94686.28;;;5.75;94.70
8543;BME280;4309;42.658;23.380;2023-03-04T02:40:22;94683.72;;;5.81;94.70
8543;BME280;4309;42.658;23.380;2023-03-04T02:40:54;94692.56;;;5.87;93.73
8543;BME280;4309;42.658;23.380;2023-03-04T02:41:28;94682.38;;;5.85;94.20
8543;BME280;4309;42.658;23.380;2023-03-04T02:42:01;94679.22;;;5.90;94.24
8543;BME280;4309;42.658;23.380;2023-03-04T02:42:32;94680.22;;;5.89;94.70
8543;BME280;4309;42.658;23.380;2023-03-04T02:43:03;94685.41;;;5.95;93.93
8543;BME280;4309;42.658;23.380;2023-03-04T02:43:34;94685.06;;;6.05;93.39
8543;BME280;4309;42.658;23.380;2023-03-04T02:44:11;94673.34;;;6.09;92.85
8543;BME280;4309;42.658;23.380;2023-03-04T02:44:45;94680.88;;;6.04;92.55
8543;BME280;4309;42.658;23.380;2023-03-04T02:45:33;94682.66;;;6.03;92.01
8543;BME280;4309;42.658;23.380;2023-03-04T02:46:04;94678.47;;;6.02;93.03
8543;BME280;4309;42.658;23.380;2023-03-04T02:46:35;94684.22;;;5.91;92.61
8543;BME280;4309;42.658;23.380;2023-03-04T02:47:09;94681.38;;;5.86;92.60
8543;BME280;4309;42.658;23.380;2023-03-04T02:47:40;94683.81;;;5.94;92.53
8543;BME280;4309;42.658;23.380;2023-03-04T02:48:11;94683.25;;;5.99;92.45
8543;BME280;4309;42.658;23.380;2023-03-04T02:48:43;94683.00;;;5.87;92.42
8543;BME280;4309;42.658;23.380;2023-03-04T02:49:14;94676.59;;;5.83;92.64
8543;BME280;4309;42.658;23.380;2023-03-04T02:49:45;94688.00;;;5.89;93.14
8543;BME280;4309;42.658;23.380;2023-03-04T02:50:17;94676.25;;;5.93;93.76
8543;BME280;4309;42.658;23.380;2023-03-04T02:50:50;94677.44;;;5.90;93.83
8543;BME280;4309;42.658;23.380;2023-03-04T02:51:21;94678.63;;;5.94;93.38
8543;BME280;4309;42.658;23.380;2023-03-04T02:51:58;94677.94;;;5.79;92.51
8543;BME280;4309;42.658;23.380;2023-03-04T02:52:29;94676.84;;;5.67;92.97
8543;BME280;4309;42.658;23.380;2023-03-04T02:53:00;94677.50;;;5.76;93.48
8543;BME280;4309;42.658;23.380;2023-03-04T02:53:31;94674.53;;;5.79;93.48
8543;BME280;4309;42.658;23.380;2023-03-04T02:54:03;94675.00;;;5.82;93.42
8543;BME280;4309;42.658;23.380;2023-03-04T02:54:35;94686.00;;;5.91;93.40
8543;BME280;4309;42.658;23.380;2023-03-04T02:55:07;94677.44;;;5.90;93.02
8543;BME280;4309;42.658;23.380;2023-03-04T02:55:38;94682.81;;;5.89;94.02
8543;BME280;4309;42.658;23.380;2023-03-04T02:56:11;94679.97;;;5.84;93.47
8543;BME280;4309;42.658;23.380;2023-03-04T02:56:48;94685.16;;;5.84;93.22
8543;BME280;4309;42.658;23.380;2023-03-04T02:57:19;94677.81;;;5.87;93.44